Time;durP1;ratioP1;P1;durP2;ratioP2;P2;SDS_P1;SDS_P2;PMS_P1;PMS_P2;Temp;Humidity;BMP_temperature;BMP_pressure;BME280_temperature;BME280_humidity;BME280_pressure;Samples;Min_cycle;Max_cycle;Signal;HPM_P1;HPM_P2
2024/02/25 00:02:11;;;;;;;100.40;53.80;;;;;;;2.44;100.00;98548.17;273411;1266;22415;-92
2024/02/25 00:08:15;;;;;;;106.80;55.50;;;;;;;2.39;100.00;98550.32;273476;1266;22369;-91
2024/02/25 00:14:57;;;;;;;113.50;59.00;;;;;;;2.41;100.00;98542.80;273439;1266;23749;-91
2024/02/25 00:21:23;;;;;;;93.20;49.40;;;;;;;2.44;100.00;98547.64;273474;1266;22419;-91
2024/02/25 00:27:33;;;;;;;108.00;60.70;;;;;;;2.42;100.00;98547.34;273523;1266;22257;-91
2024/02/25 00:33:38;;;;;;;101.50;53.20;;;;;;;2.39;100.00;98545.23;273585;1266;22198;-91
2024/02/25 00:39:40;;;;;;;106.70;57.30;;;;;;;2.36;100.00;98547.05;273356;1266;22987;-92
2024/02/25 00:45:47;;;;;;;97.30;52.90;;;;;;;2.24;100.00;98541.34;273369;1266;22832;-91
2024/02/25 00:51:51;;;;;;;97.80;51.20;;;;;;;2.14;100.00;98536.81;273392;1266;22247;-91
2024/02/25 00:57:54;;;;;;;104.30;52.50;;;;;;;2.03;100.00;98527.79;273360;1266;22190;-92
2024/02/25 01:04:01;;;;;;;110.30;56.90;;;;;;;2.04;100.00;98521.94;273312;1266;22373;-91
2024/02/25 01:10:09;;;;;;;92.60;49.50;;;;;;;2.08;100.00;98518.63;273575;1266;23338;-92
2024/02/25 01:16:12;;;;;;;88.30;47.10;;;;;;;2.02;100.00;98514.52;273554;1266;22381;-91
2024/02/25 01:22:20;;;;;;;93.30;49.90;;;;;;;1.87;100.00;98512.52;273356;1266;22408;-91
2024/02/25 01:28:25;;;;;;;100.60;53.40;;;;;;;1.78;100.00;98509.09;273386;1266;22357;-92
2024/02/25 01:34:29;;;;;;;88.80;50.70;;;;;;;1.72;100.00;98502.48;273577;1266;22377;-92
2024/02/25 01:40:43;;;;;;;86.80;47.10;;;;;;;1.73;100.00;98504.69;273565;1266;22242;-91
2024/02/25 01:46:48;;;;;;;96.80;50.60;;;;;;;1.69;100.00;98509.85;273638;1265;22256;-91
2024/02/25 01:53:10;;;;;;;102.50;54.00;;;;;;;1.64;100.00;98507.59;273537;1266;22327;-91
2024/02/25 01:59:13;;;;;;;102.00;53.00;;;;;;;1.62;100.00;98510.58;273455;1266;22338;-92
2024/02/25 02:05:21;;;;;;;88.80;45.00;;;;;;;1.55;100.00;98507.46;273545;1266;23458;-91
2024/02/25 02:11:27;;;;;;;80.90;42.30;;;;;;;1.48;100.00;98516.06;273477;1266;23409;-92
2024/02/25 02:17:30;;;;;;;88.00;48.10;;;;;;;1.42;100.00;98524.98;273492;1266;22733;-91
2024/02/25 02:23:33;;;;;;;85.70;46.40;;;;;;;1.36;100.00;98527.89;273574;1266;22683;-92
2024/02/25 02:29:35;;;;;;;76.90;43.50;;;;;;;1.29;100.00;98524.23;273467;1266;22387;-92
2024/02/25 02:37:34;;;;;;;94.80;50.00;;;;;;;1.17;100.00;98524.98;264403;1304;545077;-84
2024/02/25 02:43:56;;;;;;;95.40;51.20;;;;;;;1.10;100.00;98524.20;272051;1274;22348;-83
2024/02/25 02:50:00;;;;;;;94.90;49.00;;;;;;;1.06;100.00;98532.94;270416;1278;128296;-84
2024/02/25 02:56:02;;;;;;;91.20;48.90;;;;;;;0.96;100.00;98540.23;268774;1279;23633;-83
2024/02/25 03:02:45;;;;;;;89.50;46.10;;;;;;;0.90;100.00;98539.30;269777;1278;23889;-83
2024/02/25 03:09:22;;;;;;;;;;;;;;;0.77;100.00;98538.36;268690;1279;22549;-83
2024/02/25 03:15:24;;;;;;;102.00;56.40;;;;;;;0.67;100.00;98532.14;271411;1279;22341;-82
2024/02/25 03:21:26;;;;;;;93.10;52.40;;;;;;;0.62;100.00;98536.35;271361;1279;22762;-83
2024/02/25 03:28:08;;;;;;;95.60;50.50;;;;;;;0.61;100.00;98549.70;268802;1279;22548;-84
2024/02/25 03:34:24;;;;;;;105.70;51.80;;;;;;;0.48;100.00;98562.30;270658;1269;22456;-83
2024/02/25 03:40:26;;;;;;;97.50;48.80;;;;;;;0.49;100.00;98573.39;270098;1279;22568;-83
2024/02/25 03:46:28;;;;;;;103.70;51.70;;;;;;;0.44;100.00;98579.41;268887;1279;22232;-83
2024/02/25 03:53:10;;;;;;;112.80;54.70;;;;;;;0.41;100.00;98580.27;270845;1279;22191;-84
2024/02/25 04:00:09;;;;;;;104.40;53.70;;;;;;;0.31;100.00;98574.33;271888;1279;22276;-84
2024/02/25 04:06:48;;;;;;;103.00;52.20;;;;;;;0.21;100.00;98566.42;271255;1279;22433;-85
2024/02/25 04:13:10;;;;;;;102.90;53.70;;;;;;;0.13;100.00;98571.66;272066;1279;22858;-84
2024/02/25 04:19:12;;;;;;;112.90;58.70;;;;;;;0.10;100.00;98564.60;271592;1278;22487;-84
2024/02/25 04:25:15;;;;;;;111.00;56.50;;;;;;;0.12;100.00;98556.74;271024;1279;22316;-84
2024/02/25 04:31:17;;;;;;;120.30;61.00;;;;;;;0.09;100.00;98552.77;269851;1279;22345;-84
2024/02/25 04:37:19;;;;;;;127.30;59.70;;;;;;;0.05;100.00;98552.23;269529;1263;22552;-83
2024/02/25 04:43:21;;;;;;;123.80;60.60;;;;;;;0.02;100.00;98557.65;270654;1279;24676;-84
2024/02/25 04:49:23;;;;;;;137.30;61.90;;;;;;;-0.04;100.00;98560.90;270670;1279;23628;-84
2024/02/25 04:55:48;;;;;;;150.70;67.80;;;;;;;-0.03;100.00;98554.89;272027;1276;22206;-84
2024/02/25 05:02:10;;;;;;;145.00;67.00;;;;;;;0.05;100.00;98549.46;271755;1279;22264;-84
2024/02/25 05:08:33;;;;;;;154.40;70.20;;;;;;;0.21;100.00;98557.32;272077;1280;22453;-84
2024/02/25 05:14:38;;;;;;;138.00;66.00;;;;;;;0.40;100.00;98565.02;272498;1282;23041;-84
2024/02/25 05:21:03;;;;;;;151.10;72.40;;;;;;;0.51;100.00;98574.66;272105;1279;22204;-84
2024/02/25 05:27:33;;;;;;;148.60;68.90;;;;;;;0.57;100.00;98579.45;271650;1279;22297;-84
2024/02/25 05:34:48;;;;;;;153.90;70.50;;;;;;;0.64;100.00;98575.90;271940;1279;22513;-85
2024/02/25 05:41:31;;;;;;;172.30;74.30;;;;;;;0.73;100.00;98575.27;271657;1279;22223;-85
2024/02/25 05:48:07;;;;;;;154.40;71.10;;;;;;;0.78;100.00;98574.77;272415;1279;23032;-83
2024/02/25 05:54:29;;;;;;;150.30;70.60;;;;;;;0.80;100.00;98581.85;272203;1279;21789;-83
2024/02/25 06:01:06;;;;;;;130.40;57.50;;;;;;;0.79;100.00;98584.58;271597;1278;22407;-84
2024/02/25 06:07:30;;;;;;;119.80;55.30;;;;;;;0.76;100.00;98581.19;272404;1279;23522;-84
2024/02/25 06:13:32;;;;;;;122.00;55.90;;;;;;;0.73;100.00;98575.42;270492;1270;22574;-84
2024/02/25 06:19:35;;;;;;;136.80;55.00;;;;;;;0.63;100.00;98573.86;271033;1279;24913;-84
2024/02/25 06:25:44;;;;;;;129.00;53.60;;;;;;;0.54;100.00;98569.17;272121;1278;22198;-84
2024/02/25 06:32:07;;;;;;;105.20;49.30;;;;;;;0.55;100.00;98572.27;271968;1278;22367;-84
2024/02/25 06:38:29;;;;;;;137.30;55.20;;;;;;;0.56;100.00;98573.03;271024;1279;22582;-84
2024/02/25 06:44:31;;;;;;;122.70;49.40;;;;;;;0.59;100.00;98565.38;270382;1279;23405;-83
2024/02/25 06:50:48;;;;;;;110.70;46.60;;;;;;;0.63;100.00;98564.66;269623;1270;22611;-84
2024/02/25 06:56:50;;;;;;;128.90;54.80;;;;;;;0.75;100.00;98570.74;270151;1279;22416;-83
2024/02/25 07:03:12;;;;;;;260.10;68.90;;;;;;;0.88;100.00;98578.16;271600;1279;22965;-83
2024/02/25 07:09:14;;;;;;;244.80;73.80;;;;;;;1.09;100.00;98577.74;269700;1278;23459;-85
2024/02/25 07:15:32;;;;;;;263.60;72.10;;;;;;;1.27;100.00;98581.55;268768;1278;22569;-84
2024/02/25 07:21:34;;;;;;;238.20;71.70;;;;;;;1.42;100.00;98581.26;268843;1279;22532;-83
2024/02/25 07:27:37;;;;;;;222.00;71.80;;;;;;;1.66;100.00;98576.35;269736;1278;22414;-84
2024/02/25 07:33:47;;;;;;;129.80;58.70;;;;;;;1.82;100.00;98566.73;271496;1279;23119;-84
2024/02/25 07:40:09;;;;;;;93.50;48.10;;;;;;;2.22;100.00;98548.15;272291;1282;22219;-84
2024/02/25 07:46:27;;;;;;;97.30;50.80;;;;;;;2.71;100.00;98537.23;272269;1268;23395;-84
2024/02/25 07:53:09;;;;;;;95.00;52.00;;;;;;;3.36;100.00;98530.11;273583;1273;24037;-84
2024/02/25 07:59:52;;;;;;;77.50;44.10;;;;;;;3.93;100.00;98515.78;272681;1272;22445;-85
2024/02/25 08:06:24;;;;;;;102.20;54.70;;;;;;;4.39;100.00;98503.02;273388;1271;22861;-85
2024/02/25 08:13:06;;;;;;;95.60;50.80;;;;;;;4.81;100.00;98495.61;271317;1270;23403;-85
2024/02/25 08:19:12;;;;;;;91.00;52.30;;;;;;;5.37;100.00;98488.15;273359;1266;22255;-85
2024/02/25 08:25:14;;;;;;;84.70;47.40;;;;;;;5.94;100.00;98481.30;270997;1266;23368;-86
2024/02/25 08:31:15;;;;;;;78.50;46.10;;;;;;;6.48;100.00;98474.37;270618;1266;22323;-85
2024/02/25 08:37:17;;;;;;;72.90;44.60;;;;;;;6.94;100.00;98468.04;272322;1266;22468;-85
2024/02/25 08:43:39;;;;;;;72.10;42.90;;;;;;;7.59;100.00;98466.11;273945;1267;22683;-86
2024/02/25 08:49:42;;;;;;;71.60;42.70;;;;;;;8.35;100.00;98456.90;273902;1269;22976;-86
2024/02/25 08:55:44;;;;;;;65.00;40.90;;;;;;;9.23;100.00;98456.59;273400;1266;22381;-85
2024/02/25 09:02:11;;;;;;;63.80;40.80;;;;;;;9.94;100.00;98462.45;273544;1266;23496;-86
2024/02/25 09:08:13;;;;;;;58.10;36.40;;;;;;;10.57;100.00;98463.80;273831;1266;22290;-85
2024/02/25 09:14:19;;;;;;;53.90;34.30;;;;;;;11.35;100.00;98463.80;273592;1266;22394;-86
2024/02/25 09:20:22;;;;;;;52.30;34.10;;;;;;;11.97;100.00;98455.97;270554;1266;22616;-86
2024/02/25 09:26:33;;;;;;;44.40;29.10;;;;;;;12.54;100.00;98451.19;271408;1266;22171;-86
2024/02/25 09:33:31;;;;;;;;;;;;;;;;;;;;;
2024/02/25 09:39:34;;;;;;;52.50;35.40;;;;;;;13.80;100.00;98447.70;273849;1256;22254;-87
2024/02/25 09:46:18;;;;;;;48.10;30.10;;;;;;;14.26;100.00;98442.17;273245;1266;23763;-86
2024/02/25 09:52:47;;;;;;;40.40;27.00;;;;;;;14.88;100.00;98442.27;273930;1269;22253;-87
2024/02/25 09:59:02;;;;;;;27.30;18.00;;;;;;;15.69;100.00;98433.39;273609;1266;22215;-86
2024/02/25 10:05:31;;;;;;;15.90;10.70;;;;;;;16.19;100.00;98424.14;274069;1266;23303;-87
2024/02/25 10:11:33;;;;;;;5.30;2.70;;;;;;;16.54;98.02;98411.18;273336;1266;22406;-87
2024/02/25 10:17:36;;;;;;;4.30;2.30;;;;;;;16.46;85.43;98406.77;273820;1269;22198;-87
2024/02/25 10:24:20;;;;;;;5.40;2.10;;;;;;;16.35;81.59;98406.85;273838;1273;22648;-88
2024/02/25 10:30:22;;;;;;;3.50;2.30;;;;;;;16.13;71.50;98391.36;273392;1267;23248;-87
2024/02/25 10:36:32;;;;;;;4.90;2.40;;;;;;;16.02;68.69;98372.73;273334;1267;22544;-88
2024/02/25 10:42:52;;;;;;;5.00;2.30;;;;;;;16.30;70.20;98367.10;273077;1266;22207;-86
2024/02/25 10:49:16;;;;;;;5.00;2.60;;;;;;;16.58;68.82;98358.39;274091;1267;22288;-88
2024/02/25 10:55:39;;;;;;;3.40;2.10;;;;;;;16.57;65.09;98349.71;274162;1272;23102;-89
2024/02/25 11:01:42;;;;;;;2.90;2.00;;;;;;;16.51;63.66;98341.34;273428;1266;23573;-88
2024/02/25 11:08:09;;;;;;;5.70;2.30;;;;;;;16.43;60.95;98342.05;272930;1267;22548;-88
2024/02/25 11:14:16;;;;;;;4.40;2.60;;;;;;;16.20;58.95;98327.41;271232;1266;22654;-88
2024/02/25 11:21:00;;;;;;;4.50;2.80;;;;;;;16.16;58.25;98315.57;273995;1275;22240;-85
2024/02/25 11:27:52;;;;;;;6.10;2.20;;;;;;;16.26;56.10;98310.77;273605;1269;22296;-88
2024/02/25 11:34:17;;;;;;;3.40;1.50;;;;;;;16.25;54.80;98305.12;273556;1266;22503;-88
2024/02/25 11:40:43;;;;;;;3.60;1.70;;;;;;;16.34;54.87;98290.00;273804;1270;22203;-88
2024/02/25 11:47:07;;;;;;;2.40;1.00;;;;;;;16.41;53.67;98281.79;274024;1275;22298;-87
2024/02/25 11:53:28;;;;;;;3.20;1.30;;;;;;;16.31;49.82;98281.00;273479;1267;23500;-88
2024/02/25 11:59:32;;;;;;;2.20;1.30;;;;;;;16.06;50.89;98275.73;273736;1267;23559;-88
2024/02/25 12:05:54;;;;;;;2.90;1.40;;;;;;;15.85;50.58;98268.69;273727;1269;22364;-87
2024/02/25 12:11:56;;;;;;;3.30;1.20;;;;;;;15.55;49.39;98266.48;273069;1267;22553;-88
2024/02/25 12:18:02;;;;;;;3.50;1.30;;;;;;;15.32;49.23;98258.70;270624;1267;22410;-88
2024/02/25 12:24:09;;;;;;;2.80;1.00;;;;;;;15.13;49.41;98249.39;271745;1266;22299;-86
2024/02/25 12:30:15;;;;;;;4.30;1.10;;;;;;;15.11;50.17;98248.56;272413;1267;23365;-88
2024/02/25 12:36:41;;;;;;;2.50;1.20;;;;;;;15.09;48.49;98239.94;272629;1266;22399;-86
2024/02/25 12:42:57;;;;;;;3.20;1.50;;;;;;;14.95;47.65;98236.19;273921;1267;22368;-88
2024/02/25 12:49:21;;;;;;;2.00;1.10;;;;;;;14.86;48.84;98234.00;274079;1275;22356;-87
2024/02/25 12:55:23;;;;;;;1.90;1.10;;;;;;;14.92;49.32;98230.51;270981;1267;22587;-86
2024/02/25 13:01:26;;;;;;;2.30;1.00;;;;;;;14.93;49.40;98224.10;271259;1267;23634;-87
2024/02/25 13:08:06;;;;;;;3.60;0.80;;;;;;;14.91;48.98;98221.36;273686;1266;22232;-87
2024/02/25 13:14:11;;;;;;;1.70;0.70;;;;;;;14.82;49.44;98218.00;273450;1266;22637;-89
2024/02/25 13:20:44;;;;;;;2.70;0.90;;;;;;;14.74;49.53;98215.16;273644;1269;22194;-88
2024/02/25 13:26:46;;;;;;;3.80;0.90;;;;;;;14.72;49.92;98213.29;273059;1266;23407;-88
2024/02/25 13:33:15;;;;;;;3.20;1.10;;;;;;;14.72;50.04;98209.84;273869;1269;22971;-88
2024/02/25 13:39:59;;;;;;;2.60;1.20;;;;;;;14.70;50.00;98204.52;274013;1270;22166;-87
2024/02/25 13:46:44;;;;;;;3.20;1.00;;;;;;;14.65;50.48;98203.66;273925;1269;22234;-87
2024/02/25 13:53:36;;;;;;;2.40;0.90;;;;;;;14.53;51.42;98204.35;272385;1269;22527;-87
2024/02/25 14:00:41;;;;;;;3.00;1.00;;;;;;;14.42;51.47;98201.48;272418;1273;24267;-88
2024/02/25 14:16:18;;;;;;;1.80;0.80;;;;;;;14.28;51.40;98200.69;270685;1287;22591;-88
2024/02/25 14:23:24;;;;;;;3.10;0.80;;;;;;;14.21;51.88;98201.01;269647;1279;22318;-88
2024/02/25 14:31:34;;;;;;;4.90;1.00;;;;;;;14.05;52.41;98196.46;271638;1287;22565;-87
2024/02/25 14:38:54;;;;;;;4.30;1.00;;;;;;;13.78;52.77;98201.17;268615;1287;22720;-87
2024/02/25 14:46:13;;;;;;;3.60;1.40;;;;;;;13.63;52.80;98190.86;272373;1280;22239;-87
2024/02/25 14:54:21;;;;;;;1.50;0.80;;;;;;;13.49;53.31;98186.18;268506;1273;23073;-87
2024/02/25 15:02:22;;;;;;;2.10;1.10;;;;;;;13.26;53.12;98184.84;271185;1284;22253;-87
2024/02/25 15:09:46;;;;;;;3.90;1.80;;;;;;;13.07;53.33;98184.04;270633;1288;22277;-87
2024/02/25 15:17:52;;;;;;;4.50;1.50;;;;;;;12.94;53.35;98179.79;268759;1293;23633;-86
2024/02/25 15:25:01;;;;;;;5.50;1.70;;;;;;;12.84;53.51;98176.43;269396;1291;22367;-87
2024/02/25 15:40:45;;;;;;;4.10;1.60;;;;;;;12.57;53.81;98176.95;268331;1280;22563;-86
2024/02/25 15:48:05;;;;;;;4.40;1.90;;;;;;;12.35;54.20;98174.09;270461;1275;22972;-87
2024/02/25 15:56:14;;;;;;;3.30;1.80;;;;;;;12.12;54.69;98178.36;269637;1275;22701;-85
2024/02/25 16:03:31;;;;;;;3.50;1.70;;;;;;;11.89;55.35;98181.52;268982;1281;22983;-86
2024/02/25 16:10:18;;;;;;;6.40;2.10;;;;;;;11.74;55.43;98182.17;269420;1281;22638;-86
2024/02/25 16:17:52;;;;;;;4.00;1.90;;;;;;;11.65;55.37;98178.30;267202;1283;22570;-87
2024/02/25 16:25:24;;;;;;;4.00;1.80;;;;;;;11.56;55.46;98176.38;270777;1283;22265;-86
2024/02/25 16:40:36;;;;;;;5.20;2.10;;;;;;;11.43;55.95;98175.67;269992;1283;22276;-87
2024/02/25 16:55:31;;;;;;;5.50;2.90;;;;;;;11.23;56.62;98183.36;270570;1286;22267;-87
2024/02/25 17:26:56;;;;;;;12.20;5.00;;;;;;;10.68;58.69;98175.02;271062;1289;22276;-87
2024/02/25 17:41:20;;;;;;;27.30;12.10;;;;;;;10.54;59.58;98183.11;270439;1286;22280;-87
2024/02/25 17:48:51;;;;;;;28.70;13.30;;;;;;;10.40;60.10;98183.91;267990;1290;22376;-86
2024/02/25 17:56:27;;;;;;;37.90;20.00;;;;;;;10.23;61.22;98186.81;269458;1290;22280;-87
2024/02/25 18:03:55;;;;;;;41.10;20.00;;;;;;;10.11;61.42;98181.90;270360;1292;22237;-86
2024/02/25 18:19:32;;;;;;;29.50;13.90;;;;;;;9.95;62.24;98178.73;271483;1286;22318;-87
2024/02/25 18:27:33;;;;;;;22.80;9.40;;;;;;;9.75;63.32;98178.25;271474;1280;22221;-86
2024/02/25 18:34:45;;;;;;;36.20;16.80;;;;;;;9.47;64.50;98174.85;272670;1272;22958;-86
2024/02/25 18:42:31;;;;;;;31.50;13.80;;;;;;;9.30;65.14;98171.91;272304;1277;22346;-86
2024/02/25 18:50:06;;;;;;;26.40;11.20;;;;;;;9.18;66.12;98171.71;272601;1273;22210;-86
2024/02/25 18:58:08;;;;;;;23.20;10.60;;;;;;;9.04;66.94;98171.35;274037;1274;22191;-86
2024/02/25 19:06:06;;;;;;;26.10;9.70;;;;;;;8.83;67.57;98171.71;273448;1269;22190;-86
2024/02/25 19:13:51;;;;;;;16.70;8.20;;;;;;;8.59;67.97;98175.33;272019;1275;22345;-86
2024/02/25 19:21:36;;;;;;;20.20;9.20;;;;;;;8.29;68.96;98173.81;271366;1275;22240;-86
2024/02/25 19:28:52;;;;;;;20.20;10.80;;;;;;;8.00;69.63;98171.70;272866;1270;22423;-86
2024/02/25 19:35:58;;;;;;;34.40;14.60;;;;;;;7.81;70.16;98168.35;273938;1267;22152;-86
2024/02/25 19:43:40;;;;;;;29.20;14.50;;;;;;;7.61;70.74;98165.61;273409;1266;22297;-87
2024/02/25 19:50:55;;;;;;;34.50;15.10;;;;;;;7.50;71.34;98159.02;273833;1266;22190;-85
2024/02/25 19:58:20;;;;;;;22.40;12.70;;;;;;;7.38;72.01;98160.94;273909;1269;22202;-85
2024/02/25 20:05:57;;;;;;;27.30;14.20;;;;;;;7.26;72.90;98154.52;273882;1274;23468;-86
2024/02/25 20:13:41;;;;;;;37.60;20.20;;;;;;;7.19;73.78;98154.59;272245;1276;22554;-85
2024/02/25 20:21:28;;;;;;;41.90;21.00;;;;;;;7.16;73.97;98147.55;272582;1274;22205;-86
2024/02/25 20:28:19;;;;;;;35.50;18.20;;;;;;;7.13;75.64;98143.40;272420;1278;23458;-86
2024/02/25 20:35:14;;;;;;;46.80;21.00;;;;;;;6.89;75.99;98149.35;273412;1272;22228;-85
2024/02/25 20:43:14;;;;;;;;;;;;;;;;;;;;;
2024/02/25 20:50:40;;;;;;;50.90;24.80;;;;;;;6.68;77.45;98148.00;274054;1270;22287;-85
2024/02/25 20:58:32;;;;;;;42.90;20.80;;;;;;;6.69;78.93;98152.99;274001;1272;22938;-86
2024/02/25 21:06:18;;;;;;;49.50;23.10;;;;;;;6.64;79.35;98150.35;272369;1274;22498;-85
2024/02/25 21:13:53;;;;;;;44.10;22.20;;;;;;;6.59;79.94;98147.41;273931;1266;23027;-84
2024/02/25 21:20:53;;;;;;;44.20;21.20;;;;;;;6.57;80.88;98140.48;273982;1269;22270;-86
2024/02/25 21:28:15;;;;;;;38.50;20.70;;;;;;;6.56;80.90;98139.53;272844;1272;22710;-86
2024/02/25 21:35:55;;;;;;;43.70;22.50;;;;;;;6.56;81.94;98137.27;273073;1272;22235;-85
2024/02/25 21:43:25;;;;;;;43.80;19.90;;;;;;;6.54;82.04;98134.52;272290;1276;22681;-85
2024/02/25 21:51:14;;;;;;;42.60;18.80;;;;;;;6.44;82.81;98131.83;271684;1275;22370;-85
2024/02/25 21:58:52;;;;;;;41.70;19.80;;;;;;;6.40;82.54;98137.13;272177;1272;23406;-85
2024/02/25 22:06:30;;;;;;;42.80;21.70;;;;;;;6.36;83.14;98139.73;270088;1271;22264;-83
2024/02/25 22:14:10;;;;;;;45.80;21.00;;;;;;;6.42;84.51;98137.32;272665;1273;23117;-84
2024/02/25 22:21:44;;;;;;;44.10;20.70;;;;;;;6.43;84.84;98138.17;273174;1272;22242;-85
2024/02/25 22:28:28;;;;;;;42.90;21.10;;;;;;;6.38;85.39;98136.17;273570;1272;22288;-85
2024/02/25 22:35:27;;;;;;;38.50;20.20;;;;;;;6.37;85.55;98135.14;272068;1269;22572;-85
2024/02/25 22:42:15;;;;;;;42.70;20.50;;;;;;;6.41;86.27;98136.91;270410;1266;24422;-84
2024/02/25 22:49:46;;;;;;;45.10;20.90;;;;;;;6.39;87.12;98137.89;272678;1267;22192;-85
2024/02/25 22:57:21;;;;;;;47.30;21.90;;;;;;;6.33;87.54;98137.37;274040;1269;23204;-84
2024/02/25 23:04:59;;;;;;;43.80;21.70;;;;;;;6.29;87.85;98133.02;274097;1276;22186;-84
2024/02/25 23:12:36;;;;;;;43.00;20.90;;;;;;;6.25;87.86;98129.16;273710;1269;22235;-84
2024/02/25 23:20:24;;;;;;;43.10;20.90;;;;;;;6.20;88.25;98131.26;272313;1270;22224;-84
2024/02/25 23:27:46;;;;;;;44.00;21.40;;;;;;;6.09;88.34;98121.70;273854;1269;23028;-84
2024/02/25 23:35:24;;;;;;;42.90;19.40;;;;;;;5.95;88.62;98115.99;274091;1269;22242;-84
2024/02/25 23:43:01;;;;;;;40.00;19.40;;;;;;;5.83;89.13;98111.82;273871;1268;23685;-84
2024/02/25 23:50:22;;;;;;;38.10;18.50;;;;;;;5.66;89.56;98108.44;273563;1268;22407;-84
2024/02/25 23:58:02;;;;;;;30.70;15.70;;;;;;;5.48;89.94;98107.36;273713;1269;22315;-84
